Time;durP1;ratioP1;P1;durP2;ratioP2;P2;SDS_P1;SDS_P2;PMS_P1;PMS_P2;Temp;Humidity;BMP_temperature;BMP_pressure;BME280_temperature;BME280_humidity;BME280_pressure;Samples;Min_cycle;Max_cycle;Signal;HPM_P1;HPM_P2
2021/10/01 00:01:36;;;;;;;5.57;0.82;;;;;;;10.89;77.64;100567.63;5054187;28;20816;-74
2021/10/01 00:04:03;;;;;;;5.32;0.90;;;;;;;10.88;77.01;100568.59;5053981;28;20053;-73
2021/10/01 00:06:30;;;;;;;8.27;1.10;;;;;;;10.79;77.26;100561.09;5055057;28;20052;-72
2021/10/01 00:08:56;;;;;;;4.13;1.38;;;;;;;10.78;77.92;100564.72;5055067;28;20041;-73
2021/10/01 00:11:23;;;;;;;8.07;1.15;;;;;;;10.72;77.50;100557.88;5055115;28;20089;-71
2021/10/01 00:13:51;;;;;;;6.53;1.00;;;;;;;10.72;77.97;100556.09;5037470;28;20045;-72
2021/10/01 00:16:17;;;;;;;7.05;1.42;;;;;;;10.66;78.28;100553.75;5053992;28;20036;-74
2021/10/01 00:18:44;;;;;;;5.70;1.17;;;;;;;10.61;78.77;100553.13;5053505;28;20060;-73
2021/10/01 00:21:11;;;;;;;3.42;0.77;;;;;;;10.61;78.28;100553.13;5053859;28;20425;-72
2021/10/01 00:23:38;;;;;;;5.68;1.17;;;;;;;10.63;78.13;100550.41;5054863;28;20465;-72
2021/10/01 00:26:06;;;;;;;8.18;1.50;;;;;;;10.61;78.64;100554.97;5070354;28;20048;-73
2021/10/01 00:28:33;;;;;;;5.32;1.10;;;;;;;10.57;78.63;100547.13;5054821;28;20041;-71
2021/10/01 00:31:00;;;;;;;4.22;0.93;;;;;;;10.52;78.92;100538.50;5070270;28;20445;-71
2021/10/01 00:33:28;;;;;;;7.55;1.40;;;;;;;10.54;78.96;100535.75;5038403;28;20041;-71
2021/10/01 00:35:54;;;;;;;3.40;1.10;;;;;;;10.52;79.00;100524.31;5051385;28;20052;-72
2021/10/01 00:38:21;;;;;;;4.13;1.20;;;;;;;10.56;78.35;100526.72;5022936;28;20149;-73
2021/10/01 00:40:48;;;;;;;4.90;1.30;;;;;;;10.57;78.89;100516.91;5053633;28;20048;-72
2021/10/01 00:43:15;;;;;;;5.20;1.00;;;;;;;10.57;78.22;100523.09;5055565;28;20044;-73
2021/10/01 00:45:42;;;;;;;5.25;1.02;;;;;;;10.58;77.99;100527.47;5056503;28;20045;-73
2021/10/01 00:48:09;;;;;;;10.23;1.10;;;;;;;10.59;77.98;100520.34;5018484;28;20084;-73
2021/10/01 00:50:36;;;;;;;6.75;1.30;;;;;;;10.59;78.38;100517.69;5037933;28;20132;-72
2021/10/01 00:53:03;;;;;;;6.55;1.10;;;;;;;10.56;77.87;100520.50;5073733;28;20056;-74
2021/10/01 00:55:30;;;;;;;4.93;1.13;;;;;;;10.52;78.49;100514.47;5048514;28;20051;-72
2021/10/01 00:57:58;;;;;;;7.88;1.40;;;;;;;10.51;78.03;100511.91;5055190;28;20052;-74
2021/10/01 01:00:27;;;;;;;6.50;0.90;;;;;;;10.51;78.33;100507.41;5040479;28;20049;-72
2021/10/01 01:03:02;;;;;;;6.32;0.85;;;;;;;10.48;78.17;100507.59;5041390;28;20056;-75
2021/10/01 01:05:50;;;;;;;4.07;1.30;;;;;;;10.51;77.66;100506.56;5058281;28;20036;-73
2021/10/01 01:08:21;;;;;;;4.15;1.02;;;;;;;10.41;78.66;100493.69;5057427;28;20049;-72
2021/10/01 01:11:09;;;;;;;6.45;1.20;;;;;;;10.40;79.37;100504.47;5058197;28;20037;-73
2021/10/01 01:13:46;;;;;;;4.07;0.98;;;;;;;10.39;78.04;100487.56;5056872;28;20445;-73
2021/10/01 01:16:23;;;;;;;5.68;0.95;;;;;;;10.49;77.76;100497.75;5056994;28;20136;-71
2021/10/01 01:18:56;;;;;;;5.68;0.93;;;;;;;10.46;77.87;100490.78;5056960;28;20060;-70
2021/10/01 01:21:42;;;;;;;3.28;1.05;;;;;;;10.46;77.55;100489.00;5056799;28;20057;-75
2021/10/01 01:24:12;;;;;;;6.55;1.25;;;;;;;10.48;77.45;100480.03;5057412;28;20392;-74
2021/10/01 01:27:10;;;;;;;6.60;1.23;;;;;;;10.46;77.50;100478.31;5058536;28;20439;-74
2021/10/01 01:30:01;;;;;;;8.27;1.00;;;;;;;10.31;77.64;100452.47;5057190;28;20469;-73
2021/10/01 01:32:33;;;;;;;5.60;1.10;;;;;;;10.29;77.14;100455.22;5049190;28;20052;-74
2021/10/01 01:35:07;;;;;;;4.07;1.00;;;;;;;10.48;77.22;100478.25;5047965;28;20064;-72
2021/10/01 01:37:49;;;;;;;2.20;0.93;;;;;;;10.48;77.73;100482.69;5037032;28;20375;-72
2021/10/01 01:40:19;;;;;;;5.85;1.00;;;;;;;10.44;77.83;100469.53;5058030;28;20048;-73
2021/10/01 01:42:49;;;;;;;8.15;1.63;;;;;;;10.45;77.63;100468.59;5057215;28;20053;-71
2021/10/01 01:45:17;;;;;;;5.60;1.00;;;;;;;10.44;77.31;100477.56;5038083;28;20068;-70
2021/10/01 01:47:45;;;;;;;3.17;1.10;;;;;;;10.46;77.41;100467.66;5036784;28;20083;-72
2021/10/01 01:50:13;;;;;;;4.97;1.00;;;;;;;10.46;77.89;100475.66;5039772;28;20041;-73
2021/10/01 01:52:43;;;;;;;4.55;0.82;;;;;;;10.51;77.10;100463.88;5051852;28;20076;-72
2021/10/01 01:55:13;;;;;;;5.22;1.00;;;;;;;10.44;77.62;100469.53;5056314;28;20055;-73
2021/10/01 01:57:46;;;;;;;5.63;1.10;;;;;;;10.43;77.19;100459.81;5056329;28;20136;-71
2021/10/01 02:00:16;;;;;;;10.30;1.40;;;;;;;10.47;77.24;100463.19;5056218;28;20045;-72
2021/10/01 02:02:50;;;;;;;7.95;1.10;;;;;;;10.40;77.59;100451.94;5057775;28;20041;-73
2021/10/01 02:05:19;;;;;;;;;;;;;;;10.42;77.60;100455.41;5057223;28;20045;-73
2021/10/01 02:07:49;;;;;;;6.22;0.85;;;;;;;10.44;77.76;100450.88;5056040;28;20599;-73
2021/10/01 02:10:17;;;;;;;2.80;0.88;;;;;;;10.37;78.09;100446.78;5023638;28;20036;-72
2021/10/01 02:12:48;;;;;;;6.47;1.08;;;;;;;10.41;77.44;100451.00;5055900;28;20047;-74
2021/10/01 02:15:16;;;;;;;4.38;1.40;;;;;;;10.41;77.60;100450.16;5055960;28;20072;-72
2021/10/01 02:17:46;;;;;;;6.53;1.00;;;;;;;10.39;77.39;100442.22;5055661;28;20056;-71
2021/10/01 02:20:18;;;;;;;3.60;0.93;;;;;;;10.36;78.02;100442.41;5055745;28;20044;-74
2021/10/01 02:22:46;;;;;;;4.57;0.90;;;;;;;10.41;77.51;100436.81;5055704;28;20076;-72
2021/10/01 02:28:04;;;;;;;6.75;1.08;;;;;;;10.35;77.88;100432.66;5056783;28;20328;-73
2021/10/01 02:30:33;;;;;;;3.83;1.00;;;;;;;10.40;77.69;100435.09;5055873;28;20102;-73
2021/10/01 02:33:06;;;;;;;2.58;0.85;;;;;;;10.34;78.30;100425.59;5055482;28;20457;-72
2021/10/01 02:35:33;;;;;;;4.53;0.82;;;;;;;10.34;78.76;100425.59;5055859;28;20044;-73
2021/10/01 02:38:00;;;;;;;7.50;1.35;;;;;;;10.33;78.68;100422.09;5055309;28;20052;-73
2021/10/01 02:40:27;;;;;;;4.32;1.10;;;;;;;10.33;78.34;100418.53;5055321;28;20045;-74
2021/10/01 02:42:54;;;;;;;4.72;1.00;;;;;;;10.31;78.77;100415.13;5071975;28;20051;-73
2021/10/01 02:45:21;;;;;;;6.00;1.05;;;;;;;10.33;78.21;100413.22;5055227;28;20450;-73
2021/10/01 02:47:48;;;;;;;3.67;1.10;;;;;;;10.30;78.43;100408.06;5055213;28;20091;-75
2021/10/01 02:50:23;;;;;;;5.07;1.13;;;;;;;10.29;78.30;100408.97;5055339;28;20369;-75
2021/10/01 02:53:03;;;;;;;4.20;0.90;;;;;;;10.27;78.42;100402.88;5051815;28;20450;-74
2021/10/01 02:55:54;;;;;;;6.20;1.75;;;;;;;10.23;78.84;100402.19;5052147;28;20404;-71
2021/10/01 02:58:41;;;;;;;3.88;0.85;;;;;;;10.27;78.82;100408.22;5036335;28;20045;-72
2021/10/01 03:01:11;;;;;;;5.38;1.08;;;;;;;10.23;78.81;100401.34;5036058;28;20052;-74
2021/10/01 03:03:50;;;;;;;5.15;1.10;;;;;;;10.27;78.31;100402.88;5035159;28;20061;-74
2021/10/01 03:06:19;;;;;;;2.63;0.63;;;;;;;10.24;78.69;100403.06;5035033;28;20103;-73
2021/10/01 03:08:50;;;;;;;4.43;1.20;;;;;;;10.28;78.72;100397.47;5051630;28;20076;-72
2021/10/01 03:11:20;;;;;;;6.13;1.00;;;;;;;10.28;78.33;100400.13;5034791;28;20054;-73
2021/10/01 03:13:49;;;;;;;2.42;0.73;;;;;;;10.17;78.63;100382.06;5051431;28;20389;-74
2021/10/01 03:16:19;;;;;;;3.67;0.88;;;;;;;10.19;79.04;100382.00;5034994;28;20446;-74
2021/10/01 03:18:50;;;;;;;11.73;1.20;;;;;;;10.25;79.15;100391.44;5034779;28;20412;-72
2021/10/01 03:21:19;;;;;;;5.00;1.10;;;;;;;10.18;78.74;100389.13;5034720;28;20046;-73
2021/10/01 03:23:47;;;;;;;6.40;1.02;;;;;;;10.19;79.26;100392.66;5035713;28;20050;-72
2021/10/01 03:26:15;;;;;;;6.28;1.13;;;;;;;10.12;79.55;100386.78;5051177;28;20049;-74
2021/10/01 03:28:42;;;;;;;4.72;1.13;;;;;;;10.13;79.42;100387.66;5035619;28;20046;-73
2021/10/01 03:31:10;;;;;;;4.88;1.20;;;;;;;10.14;79.10;100384.03;5051267;28;20469;-71
2021/10/01 03:33:39;;;;;;;7.43;1.48;;;;;;;10.12;79.08;100376.13;5051219;28;20049;-73
2021/10/01 03:36:07;;;;;;;8.00;1.65;;;;;;;10.12;78.72;100378.78;5053391;28;20049;-71
2021/10/01 03:38:37;;;;;;;8.17;1.77;;;;;;;10.10;79.36;100380.69;5054343;28;20056;-73
2021/10/01 03:41:05;;;;;;;8.52;1.58;;;;;;;10.12;79.16;100376.13;5054234;28;20375;-74
2021/10/01 03:43:32;;;;;;;7.95;1.42;;;;;;;10.06;79.24;100371.13;5054193;28;20124;-74
2021/10/01 03:45:59;;;;;;;8.38;1.67;;;;;;;10.03;79.33;100380.16;5055275;28;20504;-73
2021/10/01 03:48:27;;;;;;;5.80;1.40;;;;;;;9.96;79.41;100373.44;5054110;28;20045;-72
2021/10/01 03:51:05;;;;;;;10.10;1.70;;;;;;;10.02;79.18;100372.25;5052159;28;20088;-73
2021/10/01 03:53:33;;;;;;;4.25;1.40;;;;;;;9.96;79.26;100364.59;5034642;28;20065;-73
2021/10/01 03:56:00;;;;;;;5.43;1.20;;;;;;;9.88;79.83;100357.00;5035164;28;20048;-73
2021/10/01 03:58:28;;;;;;;4.90;1.45;;;;;;;9.96;79.55;100372.59;5034396;28;20045;-73
2021/10/01 04:00:57;;;;;;;8.57;1.73;;;;;;;9.88;79.87;100359.69;5033942;28;20060;-71
2021/10/01 04:03:24;;;;;;;7.95;1.63;;;;;;;9.89;79.73;100362.25;5044389;28;20441;-72
2021/10/01 04:05:54;;;;;;;5.97;1.30;;;;;;;9.88;80.00;100363.22;5070565;28;20053;-75
2021/10/01 04:08:21;;;;;;;8.45;1.95;;;;;;;9.86;79.88;100354.41;5053496;28;20419;-73
2021/10/01 04:10:49;;;;;;;5.82;1.70;;;;;;;9.88;79.82;100349.88;5037384;28;20049;-74
2021/10/01 04:13:16;;;;;;;4.38;1.50;;;;;;;9.87;79.82;100341.97;5053444;28;20088;-74
2021/10/01 04:15:47;;;;;;;6.63;1.63;;;;;;;9.82;80.39;100338.69;5021842;28;20064;-73
2021/10/01 04:18:14;;;;;;;6.00;1.90;;;;;;;9.82;80.19;100334.22;5021023;28;20446;-75
2021/10/01 04:20:44;;;;;;;7.25;1.35;;;;;;;9.79;80.66;100339.72;5053593;28;20037;-71
2021/10/01 04:23:14;;;;;;;6.82;1.05;;;;;;;9.79;80.13;100337.03;5053766;28;20364;-72
2021/10/01 04:25:47;;;;;;;6.03;1.25;;;;;;;9.85;79.75;100323.38;5055035;28;20154;-74
2021/10/01 04:28:17;;;;;;;10.50;1.98;;;;;;;9.84;79.33;100321.66;5053536;28;20049;-72
2021/10/01 04:30:50;;;;;;;9.23;1.60;;;;;;;9.85;80.01;100317.16;5054259;28;20045;-72
2021/10/01 04:33:22;;;;;;;8.48;1.65;;;;;;;9.83;79.42;100319.06;5054776;28;20102;-74
2021/10/01 04:35:51;;;;;;;7.43;1.40;;;;;;;9.88;79.40;100323.22;5021533;28;20086;-74
2021/10/01 04:38:18;;;;;;;8.00;1.27;;;;;;;9.92;79.24;100318.59;5033468;28;20042;-73
2021/10/01 04:40:47;;;;;;;4.00;1.30;;;;;;;9.89;79.26;100308.06;5033583;28;20045;-73
2021/10/01 04:43:14;;;;;;;8.25;1.48;;;;;;;9.94;78.58;100315.81;5033477;28;20177;-71
2021/10/01 04:46:20;;;;;;;4.68;1.10;;;;;;;9.94;78.90;100316.69;5012772;28;20049;-72
2021/10/01 04:48:49;;;;;;;3.20;1.15;;;;;;;9.93;79.04;100314.97;4996440;28;20509;-75
2021/10/01 04:51:22;;;;;;;7.55;1.65;;;;;;;9.89;79.00;100314.28;5019467;28;20090;-73
2021/10/01 04:53:49;;;;;;;10.02;1.25;;;;;;;9.93;79.06;100309.63;5036919;28;20049;-72
2021/10/01 04:56:19;;;;;;;5.18;1.15;;;;;;;9.96;79.22;100313.94;5053265;28;20052;-72
2021/10/01 04:58:46;;;;;;;2.30;1.23;;;;;;;9.99;78.59;100303.97;5036857;28;20131;-71
2021/10/01 05:01:25;;;;;;;3.50;1.10;;;;;;;9.98;78.57;100306.69;5054225;28;20107;-72
2021/10/01 05:04:10;;;;;;;3.00;0.90;;;;;;;10.01;78.52;100303.84;5053549;28;20068;-73
2021/10/01 05:06:38;;;;;;;5.43;1.40;;;;;;;9.97;79.41;100305.81;5054463;28;20068;-74
2021/10/01 05:09:24;;;;;;;5.00;1.42;;;;;;;9.94;79.50;100299.81;5054684;28;20056;-74
2021/10/01 05:12:09;;;;;;;5.40;1.27;;;;;;;9.97;78.96;100304.97;5054611;28;20098;-73
2021/10/01 05:14:55;;;;;;;6.07;1.27;;;;;;;9.99;78.56;100295.09;5054561;28;20155;-72
2021/10/01 05:17:41;;;;;;;5.03;1.10;;;;;;;10.01;78.80;100295.84;5054466;28;20118;-72
2021/10/01 05:20:26;;;;;;;8.30;1.35;;;;;;;10.00;78.99;100302.13;5057792;28;20048;-73
2021/10/01 05:23:05;;;;;;;3.95;1.00;;;;;;;9.95;78.61;100283.72;5057479;28;20468;-74
2021/10/01 05:25:32;;;;;;;5.80;1.13;;;;;;;10.02;78.09;100289.59;5056901;28;20068;-72
2021/10/01 05:27:59;;;;;;;8.07;1.63;;;;;;;10.05;77.96;100292.94;5057027;28;20056;-73
2021/10/01 05:30:26;;;;;;;6.13;1.30;;;;;;;10.16;77.57;100305.66;5057847;28;20049;-73
2021/10/01 05:32:53;;;;;;;7.32;2.53;;;;;;;10.13;77.50;100284.47;5056820;28;20135;-73
2021/10/01 05:35:19;;;;;;;2.58;0.85;;;;;;;10.14;77.67;100294.19;5044345;28;20442;-72
2021/10/01 05:37:46;;;;;;;2.83;1.15;;;;;;;10.15;77.90;100289.75;5036527;28;20049;-73
2021/10/01 05:40:13;;;;;;;4.32;1.00;;;;;;;10.12;77.77;100281.91;5053211;28;20050;-72
2021/10/01 05:42:41;;;;;;;4.85;1.30;;;;;;;10.16;77.67;100292.34;5036483;28;20397;-74
2021/10/01 05:45:09;;;;;;;4.72;1.00;;;;;;;10.11;77.90;100278.38;5041573;28;20140;-73
2021/10/01 05:47:54;;;;;;;7.70;1.25;;;;;;;10.20;77.42;100287.69;5057843;28;20083;-71
2021/10/01 05:50:42;;;;;;;3.83;0.90;;;;;;;10.18;77.72;100276.22;5057733;28;20184;-74
2021/10/01 05:56:21;;;;;;;3.67;1.08;;;;;;;10.23;77.23;100286.66;5055927;28;20460;-71
2021/10/01 05:58:57;;;;;;;3.33;1.25;;;;;;;10.29;77.40;100283.59;5057369;28;20045;-70
2021/10/01 06:01:25;;;;;;;5.43;1.42;;;;;;;10.31;76.84;100287.06;5049498;28;20041;-77
2021/10/01 06:03:53;;;;;;;3.90;1.55;;;;;;;10.29;77.11;100271.13;5036716;28;20489;-74
2021/10/01 06:06:20;;;;;;;5.82;0.90;;;;;;;10.41;76.03;100266.03;5065367;28;20139;-77
2021/10/01 06:08:47;;;;;;;4.43;1.13;;;;;;;10.45;75.74;100278.25;5055717;28;20113;-72
2021/10/01 06:11:14;;;;;;;4.35;1.17;;;;;;;10.42;76.52;100267.75;5056094;28;20481;-73
2021/10/01 06:13:40;;;;;;;8.73;1.20;;;;;;;10.43;76.30;100265.03;5039004;28;20055;-73
2021/10/01 06:16:08;;;;;;;3.97;0.90;;;;;;;10.44;76.66;100272.09;5056002;28;20121;-73
2021/10/01 06:18:35;;;;;;;5.18;1.08;;;;;;;10.50;76.23;100272.69;5056179;28;20098;-74
2021/10/01 06:21:01;;;;;;;3.88;0.80;;;;;;;10.52;75.96;100268.09;5050413;28;20034;-74
2021/10/01 06:23:33;;;;;;;6.93;1.42;;;;;;;10.55;76.41;100265.22;5050525;28;20045;-73
2021/10/01 06:26:02;;;;;;;5.53;0.98;;;;;;;10.62;76.04;100269.25;5056733;28;20055;-71
2021/10/01 06:28:29;;;;;;;7.22;2.42;;;;;;;10.66;75.95;100268.13;5056581;28;20044;-74
2021/10/01 06:30:58;;;;;;;6.22;1.15;;;;;;;10.67;76.11;100272.50;5056012;28;20033;-75
2021/10/01 06:33:25;;;;;;;3.10;0.98;;;;;;;10.79;75.46;100273.59;5056550;28;20055;-75
2021/10/01 06:35:52;;;;;;;2.30;0.80;;;;;;;10.83;75.69;100277.81;5044090;28;20044;-76
2021/10/01 06:38:19;;;;;;;3.25;0.93;;;;;;;10.85;75.60;100267.88;5045406;28;20102;-77
2021/10/01 06:40:46;;;;;;;7.78;1.40;;;;;;;10.93;75.53;100267.41;5038842;28;20468;-77
2021/10/01 06:43:15;;;;;;;5.10;1.30;;;;;;;10.96;75.56;100272.56;5055334;28;20055;-76
2021/10/01 06:45:44;;;;;;;4.97;1.40;;;;;;;11.05;75.03;100275.66;5056136;28;20057;-77
2021/10/01 06:48:50;;;;;;;4.40;1.27;;;;;;;11.10;75.14;100268.19;5056514;28;20068;-76
2021/10/01 06:51:34;;;;;;;4.47;0.80;;;;;;;11.12;75.50;100258.28;5067104;28;20068;-77
2021/10/01 08:19:39;;;;;;;5.18;0.95;;;;;;;12.76;70.26;100248.66;5052637;28;20053;-70
2021/10/01 08:22:06;;;;;;;3.85;0.80;;;;;;;12.70;68.98;100238.34;5054016;28;20041;-75
2021/10/01 08:24:33;;;;;;;5.82;1.00;;;;;;;12.55;70.84;100230.41;5069652;28;20044;-73
2021/10/01 08:27:02;;;;;;;5.60;1.13;;;;;;;12.55;70.68;100230.41;5053984;28;20119;-72
2021/10/01 08:29:29;;;;;;;7.20;0.90;;;;;;;12.63;70.33;100228.06;5054140;28;20441;-74
2021/10/01 08:32:00;;;;;;;3.88;0.90;;;;;;;12.79;70.45;100227.00;5051919;28;20049;-72
2021/10/01 08:34:31;;;;;;;;;;;;;;;12.87;69.82;100211.25;5052081;28;20393;-74
2021/10/01 08:36:59;;;;;;;5.28;0.95;;;;;;;12.95;68.89;100213.38;5053190;28;19947;-73
2021/10/01 08:39:26;;;;;;;6.57;1.25;;;;;;;13.04;69.56;100201.16;5053590;28;20366;-71
2021/10/01 08:41:54;;;;;;;3.35;0.95;;;;;;;13.14;69.24;100223.66;5022998;28;20045;-70
2021/10/01 08:44:27;;;;;;;2.53;0.80;;;;;;;13.21;68.77;100210.69;5034820;28;20045;-71
2021/10/01 08:46:55;;;;;;;2.80;0.95;;;;;;;13.31;69.52;100216.25;5033577;28;20079;-72
2021/10/01 08:49:25;;;;;;;2.72;0.85;;;;;;;13.42;68.85;100208.28;5039940;28;20051;-72
2021/10/01 08:51:52;;;;;;;4.20;0.80;;;;;;;13.51;68.51;100206.78;5052824;28;20098;-72
2021/10/01 08:54:19;;;;;;;2.47;1.00;;;;;;;13.66;68.21;100209.31;5056472;28;20053;-72
2021/10/01 08:56:46;;;;;;;6.80;1.10;;;;;;;13.79;68.68;100209.28;5053485;28;20110;-73
2021/10/01 08:59:13;;;;;;;3.15;0.95;;;;;;;13.83;67.24;100216.09;5057878;28;20043;-72
2021/10/01 09:01:40;;;;;;;8.68;1.20;;;;;;;14.01;66.41;100219.28;5055236;28;20132;-72
2021/10/01 09:04:07;;;;;;;6.68;1.13;;;;;;;14.09;65.51;100222.25;5057477;28;20338;-72
2021/10/01 09:06:34;;;;;;;3.72;1.00;;;;;;;14.08;65.44;100195.50;5052061;28;20053;-71
2021/10/01 09:09:06;;;;;;;4.38;0.90;;;;;;;14.23;66.96;100217.66;5036997;28;20183;-72
2021/10/01 09:11:45;;;;;;;7.10;0.90;;;;;;;14.13;65.14;100204.91;5053437;28;20419;-71
2021/10/01 09:14:18;;;;;;;9.88;1.75;;;;;;;14.01;66.50;100196.94;5057813;28;20409;-71
2021/10/01 09:16:45;;;;;;;6.15;1.52;;;;;;;13.98;65.55;100201.56;5058124;28;20393;-72
2021/10/01 09:19:13;;;;;;;5.70;1.20;;;;;;;13.96;66.80;100200.81;5057992;28;20048;-72
2021/10/01 09:21:48;;;;;;;7.95;1.42;;;;;;;14.03;66.56;100198.53;5058064;28;20049;-75
2021/10/01 09:24:18;;;;;;;6.57;1.63;;;;;;;14.16;66.34;100198.47;5055890;28;20037;-74
2021/10/01 09:26:46;;;;;;;10.02;1.67;;;;;;;14.29;65.82;100201.09;5047855;28;20067;-75
2021/10/01 09:29:26;;;;;;;6.22;1.60;;;;;;;14.28;65.37;100188.66;5068537;28;20049;-75
2021/10/01 09:31:54;;;;;;;6.73;1.33;;;;;;;14.37;64.66;100187.94;5048576;28;20049;-76
2021/10/01 09:34:24;;;;;;;3.63;1.40;;;;;;;14.53;64.25;100176.00;5068338;28;20045;-77
2021/10/01 09:37:07;;;;;;;5.68;1.30;;;;;;;14.76;63.48;100190.34;5057943;28;20056;-76
2021/10/01 09:39:37;;;;;;;4.68;1.80;;;;;;;14.96;64.13;100182.53;5060485;28;20096;-77
2021/10/01 09:42:33;;;;;;;7.40;1.38;;;;;;;15.26;62.95;100175.69;5064995;28;20102;-74
2021/10/01 09:45:05;;;;;;;7.03;1.13;;;;;;;15.46;62.94;100167.84;5051231;28;20486;-74
2021/10/01 09:47:33;;;;;;;3.20;1.13;;;;;;;15.63;62.38;100176.38;5056924;28;20057;-71
2021/10/01 09:50:08;;;;;;;4.35;1.58;;;;;;;15.59;61.17;100173.91;5056981;28;20110;-72
2021/10/01 09:52:50;;;;;;;4.40;1.05;;;;;;;15.68;62.27;100166.94;5071267;28;20065;-73
2021/10/01 09:55:35;;;;;;;6.63;0.93;;;;;;;15.63;60.64;100162.91;5051792;28;20052;-75
2021/10/01 09:58:05;;;;;;;5.47;1.02;;;;;;;15.58;61.37;100166.84;5056081;28;20045;-72
2021/10/01 10:00:46;;;;;;;6.25;0.90;;;;;;;15.67;61.54;100167.91;5054656;28;20047;-72
2021/10/01 10:03:22;;;;;;;6.03;1.27;;;;;;;15.58;61.51;100161.44;5055926;28;20116;-74
2021/10/01 10:05:55;;;;;;;8.07;1.27;;;;;;;15.64;61.70;100156.56;5055728;28;20037;-74
2021/10/01 10:08:24;;;;;;;2.17;1.00;;;;;;;15.59;61.27;100157.78;5071704;28;20045;-77
2021/10/01 10:10:54;;;;;;;4.70;1.42;;;;;;;15.58;60.22;100158.75;5072278;28;20102;-73
2021/10/01 10:13:45;;;;;;;7.22;1.17;;;;;;;15.41;61.08;100162.00;5054756;28;20983;-72
2021/10/01 10:16:19;;;;;;;7.03;1.05;;;;;;;15.39;61.50;100155.88;5054606;28;20147;-73
2021/10/01 10:18:52;;;;;;;5.18;1.60;;;;;;;15.44;61.45;100150.97;5054574;28;20044;-71
2021/10/01 10:21:20;;;;;;;4.07;0.75;;;;;;;15.49;61.20;100148.78;5055808;28;20067;-75
2021/10/01 10:23:46;;;;;;;2.90;0.82;;;;;;;15.45;62.79;100142.78;5051447;28;20060;-76
2021/10/01 10:26:14;;;;;;;4.43;0.82;;;;;;;15.75;60.57;100145.75;5055751;28;20049;-71
2021/10/01 10:28:42;;;;;;;6.95;1.40;;;;;;;15.77;61.09;100141.09;5039121;28;20044;-73
2021/10/01 10:31:10;;;;;;;3.38;1.08;;;;;;;15.78;60.74;100150.00;5056705;28;20068;-72
2021/10/01 10:33:50;;;;;;;5.53;0.98;;;;;;;15.92;58.19;100140.81;5056242;28;20426;-73
2021/10/01 10:36:35;;;;;;;8.30;1.13;;;;;;;16.11;59.09;100132.91;5035854;28;20160;-72
2021/10/01 10:39:11;;;;;;;3.80;0.85;;;;;;;16.36;58.82;100136.19;5036769;28;20041;-72
2021/10/01 10:42:00;;;;;;;4.53;1.10;;;;;;;16.59;58.91;100117.19;5036521;28;20105;-73
2021/10/01 10:44:50;;;;;;;5.20;1.10;;;;;;;16.84;60.05;100120.41;5036494;28;20053;-73
2021/10/01 10:47:47;;;;;;;4.40;0.93;;;;;;;17.04;57.60;100117.78;5036647;28;20489;-72
2021/10/01 10:50:42;;;;;;;9.23;1.20;;;;;;;17.15;58.20;100112.31;5051912;28;20037;-73
2021/10/01 10:53:16;;;;;;;3.80;1.10;;;;;;;17.31;55.93;100103.69;5056370;28;20052;-74
2021/10/01 10:55:50;;;;;;;2.47;0.90;;;;;;;17.53;55.42;100104.44;5053956;28;20098;-74
2021/10/01 10:58:31;;;;;;;4.00;1.13;;;;;;;17.67;54.88;100105.00;5053154;28;20462;-73
2021/10/01 11:01:13;;;;;;;6.80;1.25;;;;;;;17.77;54.83;100097.78;5054650;28;20397;-71
2021/10/01 11:03:46;;;;;;;4.72;1.20;;;;;;;17.96;55.14;100091.50;5044227;28;20049;-74
2021/10/01 11:06:19;;;;;;;5.28;1.88;;;;;;;18.07;54.29;100101.31;5034507;28;20320;-74
2021/10/01 11:08:48;;;;;;;7.72;1.52;;;;;;;18.02;53.22;100096.31;5047020;28;20457;-73
2021/10/01 11:11:33;;;;;;;8.77;1.20;;;;;;;17.91;54.05;100093.78;5055047;28;20537;-75
2021/10/01 11:14:13;;;;;;;4.57;1.35;;;;;;;17.86;54.67;100085.28;5036057;28;20107;-74
2021/10/01 11:16:41;;;;;;;5.70;1.90;;;;;;;17.72;52.69;100079.31;5053006;28;20041;-74
2021/10/01 11:19:10;;;;;;;8.02;1.10;;;;;;;17.84;53.95;100080.00;5055013;28;20381;-71
2021/10/01 11:21:42;;;;;;;7.18;1.02;;;;;;;17.89;53.85;100077.75;5054818;28;20381;-72
2021/10/01 11:24:21;;;;;;;5.07;1.33;;;;;;;18.02;52.65;100069.31;5054765;28;20045;-72
2021/10/01 11:26:52;;;;;;;4.57;1.38;;;;;;;18.01;53.55;100085.66;5055766;28;20052;-71
2021/10/01 11:29:30;;;;;;;4.88;1.27;;;;;;;17.97;53.17;100079.69;5055739;28;20048;-74
2021/10/01 11:32:02;;;;;;;2.45;0.98;;;;;;;17.92;52.74;100080.13;5054591;28;20048;-74
2021/10/01 11:34:47;;;;;;;3.20;0.88;;;;;;;17.86;53.31;100082.56;5055501;28;20048;-75
2021/10/01 11:37:26;;;;;;;5.47;1.10;;;;;;;17.93;54.45;100078.31;5054491;28;20053;-74
2021/10/01 11:40:00;;;;;;;6.07;1.23;;;;;;;18.00;56.34;100087.53;5054345;28;20104;-73
2021/10/01 11:42:40;;;;;;;3.28;1.05;;;;;;;18.12;55.21;100080.16;5055584;28;20061;-72
2021/10/01 11:45:07;;;;;;;4.68;0.98;;;;;;;18.25;54.35;100066.31;5054362;28;20155;-73
2021/10/01 11:47:35;;;;;;;3.28;0.95;;;;;;;18.27;52.83;100055.38;5055508;28;20338;-72
2021/10/01 11:50:06;;;;;;;8.57;1.08;;;;;;;18.18;52.26;100054.38;5054352;28;20393;-73
2021/10/01 11:52:42;;;;;;;3.33;0.98;;;;;;;18.28;53.34;100049.81;5055614;28;20053;-73
2021/10/01 11:55:10;;;;;;;2.88;0.77;;;;;;;18.53;52.43;100060.97;5054875;28;20041;-73
2021/10/01 11:57:40;;;;;;;5.78;1.67;;;;;;;18.75;52.38;100064.31;5055196;28;20041;-73
2021/10/01 12:00:13;;;;;;;5.60;1.27;;;;;;;18.82;51.65;100070.81;5055264;28;20055;-73
2021/10/01 12:02:46;;;;;;;4.95;1.17;;;;;;;18.97;50.95;100062.19;5055227;28;20068;-73
2021/10/01 12:05:36;;;;;;;4.68;1.20;;;;;;;18.79;51.88;100057.56;5037508;28;20389;-73
2021/10/01 12:08:07;;;;;;;7.47;1.45;;;;;;;18.58;51.55;100050.56;5049983;28;20060;-73
2021/10/01 12:10:43;;;;;;;8.32;1.40;;;;;;;18.45;53.65;100050.03;5055078;28;20045;-74
2021/10/01 12:13:29;;;;;;;7.68;1.08;;;;;;;18.30;52.72;100045.13;5055117;28;20075;-73
2021/10/01 12:16:00;;;;;;;4.88;0.95;;;;;;;17.91;51.49;100053.28;5042770;28;20431;-72
2021/10/01 12:18:41;;;;;;;5.20;1.40;;;;;;;17.94;52.24;100053.00;5035144;28;20049;-72
2021/10/01 12:21:18;;;;;;;7.55;1.15;;;;;;;17.86;53.34;100044.78;5034141;28;20417;-72
2021/10/01 12:23:47;;;;;;;4.72;0.93;;;;;;;17.82;53.85;100040.66;5033963;28;20033;-75
2021/10/01 12:26:29;;;;;;;5.38;1.17;;;;;;;17.80;52.52;100045.34;5035023;28;20057;-72
2021/10/01 12:28:57;;;;;;;7.03;1.25;;;;;;;17.66;52.14;100039.41;5040282;28;20054;-74
2021/10/01 12:31:29;;;;;;;4.15;1.15;;;;;;;17.56;52.81;100044.78;5040563;28;20046;-71
2021/10/01 12:34:02;;;;;;;4.45;1.00;;;;;;;17.63;54.04;100036.97;5041109;28;20045;-72
2021/10/01 12:36:29;;;;;;;5.30;0.77;;;;;;;17.60;54.50;100040.78;5061409;28;20045;-73
2021/10/01 12:38:59;;;;;;;5.43;1.10;;;;;;;17.58;53.46;100031.13;5060711;28;20438;-75
2021/10/01 12:41:28;;;;;;;5.20;1.27;;;;;;;17.45;53.18;100029.59;5060286;28;20316;-74
2021/10/01 12:43:58;;;;;;;8.55;1.10;;;;;;;17.33;53.79;100045.03;5060441;28;20114;-72
2021/10/01 12:46:34;;;;;;;8.70;1.20;;;;;;;17.32;54.55;100031.72;5061203;28;20084;-72
2021/10/01 12:49:20;;;;;;;4.28;1.00;;;;;;;17.43;55.02;100034.25;5061421;28;20072;-72
2021/10/01 12:52:09;;;;;;;8.70;1.05;;;;;;;17.48;54.83;100045.50;5060271;28;20049;-73
2021/10/01 12:54:48;;;;;;;3.58;1.30;;;;;;;17.48;53.81;100032.00;5060316;28;20359;-73
2021/10/01 12:57:21;;;;;;;3.33;1.00;;;;;;;17.57;53.77;100038.41;5061238;28;20047;-71
2021/10/01 12:59:56;;;;;;;8.27;1.23;;;;;;;17.63;53.70;100039.66;5061307;28;20049;-74
2021/10/01 13:02:35;;;;;;;4.97;0.88;;;;;;;17.61;53.33;100033.56;5061219;28;20488;-72
2021/10/01 13:05:06;;;;;;;4.95;1.27;;;;;;;17.67;53.85;100030.28;5059982;28;20045;-73
2021/10/01 13:07:40;;;;;;;5.43;1.48;;;;;;;17.67;53.34;100027.59;5061634;28;20048;-71
2021/10/01 13:10:13;;;;;;;5.45;1.02;;;;;;;17.70;54.44;100019.19;5060003;28;20048;-76
2021/10/01 13:12:52;;;;;;;3.17;1.00;;;;;;;17.73;53.83;100021.63;5060992;28;20051;-73
2021/10/01 13:15:26;;;;;;;4.43;1.20;;;;;;;17.68;54.10;100018.50;5056594;28;20192;-72
2021/10/01 13:18:42;;;;;;;5.00;1.00;;;;;;;17.80;53.89;100023.75;5041392;28;20053;-74
2021/10/01 13:21:21;;;;;;;7.32;1.73;;;;;;;17.71;53.85;100012.81;5056639;28;20053;-74
2021/10/01 13:23:55;;;;;;;7.33;1.10;;;;;;;17.70;53.85;100013.81;5041041;28;20328;-73